Time;durP1;ratioP1;P1;durP2;ratioP2;P2;SDS_P1;SDS_P2;PMS_P1;PMS_P2;Temp;Humidity;BMP_temperature;BMP_pressure;BME280_temperature;BME280_humidity;BME280_pressure;Samples;Min_cycle;Max_cycle;Signal;HPM_P1;HPM_P2
2021/12/22 00:01:26;;;;;;;1.75;0.77;;;0.30;99.90;;;;;;4993414;28;20042;-83
2021/12/22 00:03:52;;;;;;;;;;;0.40;99.90;;;;;;4995789;28;20041;-84
2021/12/22 00:06:21;;;;;;;;;;;0.40;99.90;;;;;;4992885;28;19914;-84
2021/12/22 00:08:47;;;;;;;;;;;0.50;99.90;;;;;;4993252;28;20617;-83
2021/12/22 00:11:12;;;;;;;;;;;0.50;99.90;;;;;;4993100;28;19967;-83
2021/12/22 00:13:38;;;;;;;;;;;0.50;99.90;;;;;;4995996;28;19924;-84
2021/12/22 00:16:03;;;;;;;;;;;0.40;99.90;;;;;;4990512;28;20407;-84
2021/12/22 00:18:29;;;;;;;;;;;0.30;99.90;;;;;;4995368;28;19972;-84
2021/12/22 00:20:54;;;;;;;;;;;0.30;99.90;;;;;;5000336;28;19913;-84
2021/12/22 00:23:20;;;;;;;;;;;0.30;99.90;;;;;;4993485;28;19917;-84
2021/12/22 00:25:45;;;;;;;;;;;0.50;99.90;;;;;;4991230;28;19980;-84
2021/12/22 00:28:13;;;;;;;;;;;0.50;99.90;;;;;;4992141;28;20373;-84
2021/12/22 00:30:39;;;;;;;;;;;0.50;99.90;;;;;;5005658;28;20158;-85
2021/12/22 00:33:06;;;;;;;;;;;0.50;99.90;;;;;;5001353;28;19920;-84
2021/12/22 00:35:39;;;;;;;;;;;0.40;99.90;;;;;;4993799;28;19968;-84
2021/12/22 00:38:08;;;;;;;;;;;0.40;99.90;;;;;;4994328;28;19920;-84
2021/12/22 00:40:34;;;;;;;;;;;0.40;99.90;;;;;;4994104;28;19924;-84
2021/12/22 00:43:00;;;;;;;;;;;0.40;99.90;;;;;;4993544;28;19914;-84
2021/12/22 00:45:28;;;;;;;;;;;0.50;99.90;;;;;;4989535;28;19944;-84
2021/12/22 00:47:54;;;;;;;;;;;0.40;99.90;;;;;;5006163;28;20570;-84
2021/12/22 00:50:19;;;;;;;;;;;0.50;99.90;;;;;;4991698;28;20044;-84
2021/12/22 00:52:45;;;;;;;;;;;0.50;99.90;;;;;;4994182;28;20008;-84
2021/12/22 00:55:13;;;;;;;;;;;0.50;99.90;;;;;;4992138;28;20379;-84
2021/12/22 00:57:39;;;;;;;;;;;0.40;99.90;;;;;;4995213;28;19910;-84
2021/12/22 01:00:07;;;;;;;;;;;0.50;99.90;;;;;;4993833;28;19921;-84
2021/12/22 01:02:33;;;;;;;;;;;0.50;99.90;;;;;;4992675;28;19949;-84
2021/12/22 01:04:58;;;;;;;;;;;0.60;99.90;;;;;;4993212;28;20380;-84
2021/12/22 01:07:24;;;;;;;;;;;0.60;99.90;;;;;;4992436;28;19918;-84
2021/12/22 01:09:49;;;;;;;;;;;0.60;99.90;;;;;;4990628;28;20345;-84
2021/12/22 01:12:15;;;;;;;;;;;0.60;99.90;;;;;;4990864;28;19914;-84
2021/12/22 01:14:40;;;;;;;;;;;0.60;99.90;;;;;;4993833;28;19914;-84
2021/12/22 01:17:07;;;;;;;;;;;0.60;99.90;;;;;;4992505;28;19966;-84
2021/12/22 01:20:02;;;;;;;;;;;0.50;99.90;;;;;;4993420;28;20009;-84
2021/12/22 01:24:49;;;;;;;;;;;0.70;99.90;;;;;;4989883;28;20281;-84
2021/12/22 01:27:20;;;;;;;;;;;0.70;99.90;;;;;;5005621;28;19996;-83
2021/12/22 01:29:45;;;;;;;;;;;0.70;99.90;;;;;;4990807;28;19921;-84
2021/12/22 01:32:12;;;;;;;;;;;0.70;99.90;;;;;;5005352;28;19936;-84
2021/12/22 01:34:38;;;;;;;;;;;0.70;99.90;;;;;;5006664;28;20538;-84
2021/12/22 01:37:03;;;;;;;;;;;0.80;99.90;;;;;;4993031;28;19910;-84
2021/12/22 01:39:29;;;;;;;;;;;0.80;99.90;;;;;;5006606;28;20262;-84
2021/12/22 01:41:54;;;;;;;;;;;0.70;99.90;;;;;;4994942;28;19914;-84
2021/12/22 01:50:10;;;;;;;;;;;0.70;99.90;;;;;;4995861;28;19955;-83
2021/12/22 01:52:35;;;;;;;;;;;0.80;99.90;;;;;;5010066;28;19953;-83
2021/12/22 01:55:13;;;;;;;;;;;0.80;99.90;;;;;;5008749;28;20045;-84
2021/12/22 01:57:46;;;;;;;;;;;0.80;99.90;;;;;;4999625;28;19913;-84
2021/12/22 02:00:13;;;;;;;;;;;0.80;99.90;;;;;;4997084;28;19994;-84
2021/12/22 02:02:39;;;;;;;;;;;0.80;99.90;;;;;;4996956;28;20357;-83
2021/12/22 02:05:05;;;;;;;;;;;0.80;99.90;;;;;;4997212;28;20421;-84
2021/12/22 02:07:30;;;;;;;;;;;0.90;99.90;;;;;;4996027;28;19917;-83
2021/12/22 02:10:12;;;;;;;;;;;0.80;99.90;;;;;;4995586;28;19914;-83
2021/12/22 02:12:45;;;;;;;;;;;0.80;99.90;;;;;;4995152;28;20358;-84
2021/12/22 02:15:10;;;;;;;;;;;0.80;99.90;;;;;;4992549;28;19910;-84
2021/12/22 02:17:36;;;;;;;;;;;0.90;99.90;;;;;;4993248;28;20405;-84
2021/12/22 02:20:03;;;;;;;;;;;0.80;99.90;;;;;;4974049;28;20037;-84
2021/12/22 02:22:28;;;;;;;;;;;0.80;99.90;;;;;;4994177;28;20389;-83
2021/12/22 02:24:58;;;;;;;;;;;0.80;99.90;;;;;;4975464;28;19964;-84
2021/12/22 02:27:33;;;;;;;;;;;0.80;99.90;;;;;;4990537;28;20290;-84
2021/12/22 02:30:02;;;;;;;;;;;0.80;99.90;;;;;;4987339;28;20349;-84
2021/12/22 02:35:04;;;;;;;;;;;0.80;99.90;;;;;;4973908;28;19910;-84
2021/12/22 02:37:30;;;;;;;;;;;0.80;99.90;;;;;;4979637;28;20357;-84
2021/12/22 02:40:09;;;;;;;;;;;0.80;99.90;;;;;;4974896;28;19918;-84
2021/12/22 02:42:35;;;;;;;;;;;0.80;99.90;;;;;;4980539;28;20099;-84
2021/12/22 02:45:07;;;;;;;;;;;0.80;99.90;;;;;;4975979;28;19969;-85
2021/12/22 02:47:32;;;;;;;;;;;0.80;99.90;;;;;;4988132;28;19918;-85
2021/12/22 02:49:58;;;;;;;;;;;0.80;99.90;;;;;;4993926;28;19910;-85
2021/12/22 02:52:30;;;;;;;;;;;0.80;99.90;;;;;;4993774;28;19913;-85
2021/12/22 02:54:57;;;;;;;;;;;0.70;99.90;;;;;;5008284;28;19909;-84
2021/12/22 02:57:33;;;;;;;;;;;0.80;99.90;;;;;;5007481;28;19936;-84
2021/12/22 03:03:08;;;;;;;;;;;0.80;99.90;;;;;;4976729;28;20008;-85
2021/12/22 03:05:33;;;;;;;;;;;0.80;99.90;;;;;;4975720;28;19920;-85
2021/12/22 03:07:58;;;;;;;;;;;0.80;99.90;;;;;;4974329;28;19961;-84
2021/12/22 03:10:24;;;;;;;;;;;0.70;99.90;;;;;;4974965;28;19948;-84
2021/12/22 03:12:55;;;;;;;;;;;0.70;99.90;;;;;;4973888;28;19921;-84
2021/12/22 03:15:21;;;;;;;;;;;0.80;99.90;;;;;;4975704;28;20009;-84
2021/12/22 03:17:47;;;;;;;;;;;0.70;99.90;;;;;;4975857;28;20001;-84
2021/12/22 03:20:14;;;;;;;;;;;0.70;99.90;;;;;;4976345;28;20357;-84
2021/12/22 03:22:45;;;;;;;;;;;0.60;99.90;;;;;;4975930;28;19920;-83
2021/12/22 03:25:15;;;;;;;;;;;0.60;99.90;;;;;;4974224;28;19913;-84
2021/12/22 03:27:42;;;;;;;;;;;0.60;99.90;;;;;;4975170;28;19914;-84
2021/12/22 03:30:08;;;;;;;;;;;0.60;99.90;;;;;;4973500;28;19917;-84
2021/12/22 03:32:33;;;;;;;;;;;0.60;99.90;;;;;;4975460;28;20787;-84
2021/12/22 03:34:59;;;;;;;;;;;0.60;99.90;;;;;;4972959;28;19940;-84
2021/12/22 03:37:24;;;;;;;;;;;0.60;99.90;;;;;;4994598;28;19914;-84
2021/12/22 03:39:50;;;;;;;;;;;0.70;99.90;;;;;;4993621;28;19917;-84
2021/12/22 03:42:15;;;;;;;;;;;0.60;99.90;;;;;;4984598;28;20232;-84
2021/12/22 03:44:41;;;;;;;;;;;0.60;99.90;;;;;;4973568;28;20390;-84
2021/12/22 03:47:07;;;;;;;;;;;0.60;99.90;;;;;;4976490;28;19925;-84
2021/12/22 03:49:32;;;;;;;;;;;0.50;99.90;;;;;;4972526;28;19945;-84
2021/12/22 03:51:58;;;;;;;;;;;0.70;99.90;;;;;;4976099;28;19941;-84
2021/12/22 03:54:23;;;;;;;;;;;0.60;99.90;;;;;;4974125;28;19917;-84
2021/12/22 03:56:50;;;;;;;;;;;0.60;99.90;;;;;;4993560;28;20348;-84
2021/12/22 03:59:15;;;;;;;;;;;0.50;99.90;;;;;;4993835;28;19944;-84
2021/12/22 04:01:41;;;;;;;;;;;0.50;99.90;;;;;;4983837;28;19953;-84
2021/12/22 04:04:13;;;;;;;;;;;0.60;99.90;;;;;;4969029;28;19991;-84
2021/12/22 04:06:39;;;;;;;;;;;0.50;99.90;;;;;;4974180;28;19976;-84
2021/12/22 04:09:05;;;;;;;;;;;0.50;99.90;;;;;;4974257;28;19994;-85
2021/12/22 04:11:30;;;;;;;;;;;0.50;99.90;;;;;;4976999;28;19937;-84
2021/12/22 04:13:56;;;;;;;;;;;0.50;99.90;;;;;;4970996;28;19910;-84
2021/12/22 04:16:21;;;;;;;;;;;0.50;99.90;;;;;;4982408;28;19920;-83
2021/12/22 04:18:47;;;;;;;;;;;0.50;99.90;;;;;;4993790;28;20019;-84
2021/12/22 04:21:13;;;;;;;;;;;0.50;99.90;;;;;;4987256;28;19918;-84
2021/12/22 04:23:38;;;;;;;;;;;0.50;99.90;;;;;;4975648;28;20394;-84
2021/12/22 04:26:04;;;;;;;;;;;0.50;99.90;;;;;;4976097;28;20361;-83
2021/12/22 04:28:29;;;;;;;;;;;0.50;99.90;;;;;;4981285;28;19961;-83
2021/12/22 04:30:55;;;;;;;;;;;0.50;99.90;;;;;;4972263;28;20454;-83
2021/12/22 04:33:21;;;;;;;;;;;0.50;99.90;;;;;;4981183;28;19918;-83
2021/12/22 04:35:50;;;;;;;;;;;0.50;99.90;;;;;;4976668;28;19914;-83
2021/12/22 04:38:16;;;;;;;;;;;0.50;99.90;;;;;;4975358;28;20005;-83
2021/12/22 04:40:42;;;;;;;;;;;0.50;99.90;;;;;;4975337;28;20429;-84
2021/12/22 04:43:08;;;;;;;;;;;0.50;99.90;;;;;;4986202;28;19913;-84
2021/12/22 04:45:33;;;;;;;;;;;0.50;99.90;;;;;;4974300;28;20395;-83
2021/12/22 04:47:59;;;;;;;;;;;0.50;99.90;;;;;;4970743;28;19918;-84
2021/12/22 04:50:25;;;;;;;;;;;0.50;99.90;;;;;;4975626;28;19914;-83
2021/12/22 04:52:58;;;;;;;;;;;0.60;99.90;;;;;;4973540;28;20384;-84
2021/12/22 04:55:25;;;;;;;;;;;0.50;99.90;;;;;;4972946;28;19920;-83
2021/12/22 04:57:51;;;;;;;;;;;0.50;99.90;;;;;;4973675;28;20013;-83
2021/12/22 05:00:17;;;;;;;;;;;0.50;99.90;;;;;;4971300;28;19941;-83
2021/12/22 05:02:43;;;;;;;;;;;0.50;99.90;;;;;;4972163;28;20357;-84
2021/12/22 05:05:08;;;;;;;;;;;0.50;99.90;;;;;;4970424;28;19914;-83
2021/12/22 05:07:34;;;;;;;;;;;0.50;99.90;;;;;;4988441;28;20535;-83
2021/12/22 05:09:59;;;;;;;;;;;0.60;99.90;;;;;;4976932;28;19914;-85
2021/12/22 05:12:25;;;;;;;;;;;0.60;99.90;;;;;;4981237;28;19914;-86
2021/12/22 05:14:52;;;;;;;;;;;0.50;99.90;;;;;;4979718;28;19921;-85
2021/12/22 05:17:38;;;;;;;;;;;0.50;99.90;;;;;;4986241;28;19965;-85
2021/12/22 05:20:04;;;;;;;;;;;0.50;99.90;;;;;;4982466;28;19921;-86
2021/12/22 05:22:29;;;;;;;;;;;0.50;99.90;;;;;;4991558;28;19968;-86
2021/12/22 05:24:57;;;;;;;;;;;0.50;99.90;;;;;;4983804;28;20366;-85
2021/12/22 05:27:23;;;;;;;;;;;0.40;99.90;;;;;;4999950;28;19913;-85
2021/12/22 05:29:49;;;;;;;;;;;0.40;99.90;;;;;;5013386;28;19916;-86
2021/12/22 05:32:14;;;;;;;;;;;0.40;99.90;;;;;;4992213;28;19956;-85
2021/12/22 05:34:40;;;;;;;;;;;0.30;99.90;;;;;;4984615;28;19909;-85
2021/12/22 05:37:05;;;;;;;;;;;0.20;99.90;;;;;;4998857;28;19917;-86
2021/12/22 05:39:31;;;;;;;;;;;0.10;99.90;;;;;;4999371;28;20254;-83
2021/12/22 05:41:57;;;;;;;;;;;0.00;99.90;;;;;;4986420;28;19965;-85
2021/12/22 05:44:23;;;;;;;;;;;0.00;99.90;;;;;;4977371;28;19961;-85
2021/12/22 05:46:48;;;;;;;;;;;-0.10;99.90;;;;;;4987602;28;19949;-83
2021/12/22 05:49:14;;;;;;;;;;;-0.10;99.90;;;;;;4994620;28;19985;-83
2021/12/22 05:51:39;;;;;;;;;;;-0.20;99.90;;;;;;4987821;28;20350;-84
2021/12/22 05:54:05;;;;;;;;;;;-0.20;99.90;;;;;;4975833;28;19921;-85
2021/12/22 05:56:30;;;;;;;;;;;-0.20;99.90;;;;;;4985640;28;20016;-85
2021/12/22 05:58:57;;;;;;;;;;;-0.30;99.90;;;;;;4978306;28;19918;-85
2021/12/22 06:01:23;;;;;;;;;;;-0.30;99.90;;;;;;4978625;28;20005;-85
2021/12/22 06:03:49;;;;;;;;;;;-0.30;99.90;;;;;;4976833;28;20024;-85
2021/12/22 06:06:14;;;;;;;;;;;-0.40;99.90;;;;;;4987812;28;19914;-86
2021/12/22 06:08:40;;;;;;;;;;;-0.40;99.90;;;;;;4974637;28;20300;-84
2021/12/22 06:11:05;;;;;;;;;;;-0.40;99.90;;;;;;4980571;28;19918;-84
2021/12/22 06:13:31;;;;;;;;;;;-0.40;99.90;;;;;;4997474;28;19927;-82
2021/12/22 06:15:56;;;;;;;;;;;-0.50;99.90;;;;;;4983751;28;19913;-83
2021/12/22 06:18:22;;;;;;;;;;;-0.50;99.90;;;;;;4981838;28;19947;-84
2021/12/22 06:20:48;;;;;;;;;;;-0.60;99.90;;;;;;4998157;28;19921;-83
2021/12/22 06:23:14;;;;;;;;;;;-0.60;99.90;;;;;;4982433;28;19918;-84
2021/12/22 06:25:39;;;;;;;;;;;-0.60;99.90;;;;;;4983666;28;20005;-84
2021/12/22 06:28:05;;;;;;;;;;;-0.60;99.90;;;;;;4995386;28;19953;-84
2021/12/22 06:30:31;;;;;;;;;;;-0.70;99.90;;;;;;4985723;28;19917;-83
2021/12/22 06:32:56;;;;;;;;;;;-0.60;99.90;;;;;;4986532;28;20300;-84
2021/12/22 06:35:22;;;;;;;;;;;-0.70;99.90;;;;;;4980238;28;20064;-84
2021/12/22 06:37:47;;;;;;;;;;;-0.50;99.90;;;;;;4978121;28;19914;-84
2021/12/22 06:40:14;;;;;;;;;;;-0.60;99.90;;;;;;4983765;28;19918;-84
2021/12/22 06:42:39;;;;;;;;;;;-0.60;99.90;;;;;;4979880;28;19917;-84
2021/12/22 06:45:06;;;;;;;;;;;-0.70;99.90;;;;;;4985547;28;19921;-84
2021/12/22 06:47:32;;;;;;;;;;;-0.70;99.90;;;;;;4977890;28;20468;-79
2021/12/22 06:49:57;;;;;;;;;;;-0.60;99.90;;;;;;4978748;28;19962;-79
2021/12/22 06:52:23;;;;;;;;;;;-0.60;99.90;;;;;;4982403;28;19914;-79
2021/12/22 06:54:49;;;;;;;;;;;-0.60;99.90;;;;;;4980892;28;20319;-79
2021/12/22 06:57:18;;;;;;;;;;;-0.60;99.90;;;;;;4984999;28;19920;-79
2021/12/22 06:59:44;;;;;;;;;;;-0.70;99.90;;;;;;4976506;28;20053;-79
2021/12/22 07:02:10;;;;;;;;;;;-0.70;99.90;;;;;;4979533;28;20004;-78
2021/12/22 07:04:35;;;;;;;;;;;-0.70;99.90;;;;;;4980617;28;19909;-79
2021/12/22 07:07:01;;;;;;;;;;;-0.70;99.90;;;;;;4982332;28;20052;-79
2021/12/22 07:09:26;;;;;;;;;;;-0.80;99.90;;;;;;4979244;28;19917;-79
2021/12/22 07:11:52;;;;;;;;;;;-0.80;99.90;;;;;;4993913;28;20045;-79
2021/12/22 07:14:17;;;;;;;;;;;-0.80;99.90;;;;;;4981518;28;19924;-81
2021/12/22 07:16:44;;;;;;;;;;;-0.80;99.90;;;;;;4978177;28;20570;-84
2021/12/22 07:19:10;;;;;;;;;;;-0.70;99.90;;;;;;4973252;28;20392;-85
2021/12/22 07:21:36;;;;;;;;;;;-0.70;99.90;;;;;;4984819;28;19914;-84
2021/12/22 07:24:02;;;;;;;;;;;-0.70;99.90;;;;;;4975759;28;19914;-83
2021/12/22 07:26:27;;;;;;;;;;;-0.70;99.90;;;;;;4976924;28;19910;-83
2021/12/22 07:28:53;;;;;;;;;;;-0.70;99.90;;;;;;4971418;28;20374;-84
2021/12/22 07:31:18;;;;;;;;;;;-0.70;99.90;;;;;;4976364;28;19933;-83
2021/12/22 07:33:51;;;;;;;;;;;-0.70;99.90;;;;;;4976239;28;19918;-83
2021/12/22 07:36:16;;;;;;;;;;;-0.70;99.90;;;;;;4977962;28;19936;-85
2021/12/22 07:38:46;;;;;;;;;;;-0.70;99.90;;;;;;4979267;28;20625;-85
2021/12/22 07:41:12;;;;;;;;;;;-0.70;99.90;;;;;;4981492;28;19909;-84
2021/12/22 07:43:37;;;;;;;;;;;-0.70;99.90;;;;;;4990743;28;20365;-83
2021/12/22 07:46:03;;;;;;;;;;;-0.60;99.90;;;;;;4986792;28;19926;-83
2021/12/22 07:48:29;;;;;;;;;;;-0.50;99.90;;;;;;4986657;28;19965;-83
2021/12/22 07:50:55;;;;;;;;;;;-0.60;99.90;;;;;;4973618;28;19914;-83
2021/12/22 07:53:21;;;;;;;;;;;-0.60;99.90;;;;;;4973578;28;19914;-83
2021/12/22 07:55:47;;;;;;;;;;;-0.60;99.90;;;;;;4981625;28;20400;-84
2021/12/22 07:58:12;;;;;;;;;;;-0.60;99.90;;;;;;4976051;28;19981;-83
2021/12/22 08:00:38;;;;;;;;;;;-0.60;99.90;;;;;;4977598;28;20008;-83
2021/12/22 08:03:04;;;;;;;;;;;-0.60;99.90;;;;;;4971079;28;19921;-83
2021/12/22 08:05:29;;;;;;;;;;;-0.60;99.90;;;;;;4975690;28;19963;-83
2021/12/22 08:07:56;;;;;;;;;;;-0.50;99.90;;;;;;4973981;28;19929;-82
2021/12/22 08:10:22;;;;;;;;;;;-0.50;99.90;;;;;;4976345;28;19918;-83
2021/12/22 08:12:47;;;;;;;;;;;-0.40;99.90;;;;;;4979951;28;19914;-84
2021/12/22 08:15:14;;;;;;;;;;;-0.40;99.90;;;;;;4972522;28;19918;-84
2021/12/22 08:17:40;;;;;;;;;;;-0.40;99.90;;;;;;4972980;28;19990;-84
2021/12/22 08:20:05;;;;;;;;;;;-0.30;99.90;;;;;;4980601;28;19933;-84
2021/12/22 08:22:31;;;;;;;;;;;-0.30;99.90;;;;;;4976720;28;19910;-84
2021/12/22 08:24:59;;;;;;;;;;;-0.20;99.90;;;;;;4973120;28;19936;-85
2021/12/22 08:27:27;;;;;;;;;;;-0.10;99.90;;;;;;4978454;28;19913;-83
2021/12/22 08:29:52;;;;;;;;;;;-0.10;99.90;;;;;;4985991;28;20407;-83
2021/12/22 08:32:18;;;;;;;;;;;-0.10;99.90;;;;;;4982131;28;19985;-82
2021/12/22 08:34:46;;;;;;;;;;;-0.10;99.90;;;;;;4978786;28;19913;-83
2021/12/22 08:39:56;;;;;;;;;;;0.00;99.90;;;;;;4970622;28;20368;-83
2021/12/22 08:42:22;;;;;;;;;;;0.00;99.90;;;;;;4972160;28;19918;-83
2021/12/22 08:44:48;;;;;;;;;;;0.00;99.90;;;;;;4968951;28;19933;-83
2021/12/22 08:47:14;;;;;;;;;;;0.10;99.90;;;;;;4987776;28;19929;-83
2021/12/22 08:49:40;;;;;;;;;;;0.20;99.90;;;;;;4973245;28;20326;-84
2021/12/22 08:52:06;;;;;;;;;;;0.30;99.90;;;;;;4979527;28;19910;-83
2021/12/22 08:54:31;;;;;;;;;;;0.30;99.90;;;;;;4970062;28;20511;-83
2021/12/22 08:56:57;;;;;;;;;;;0.40;99.90;;;;;;4976398;28;20011;-84
2021/12/22 08:59:23;;;;;;;;;;;0.40;99.90;;;;;;4972273;28;19914;-83
2021/12/22 09:01:48;;;;;;;;;;;0.50;99.90;;;;;;4972866;28;19914;-83
2021/12/22 09:04:14;;;;;;;;;;;0.60;99.90;;;;;;4978752;28;19920;-83
2021/12/22 09:06:39;;;;;;;;;;;0.70;99.90;;;;;;4974247;28;19914;-83
2021/12/22 09:09:06;;;;;;;;;;;0.70;99.90;;;;;;4975624;28;19925;-83
2021/12/22 09:11:31;;;;;;;;;;;0.70;99.90;;;;;;4975770;28;19937;-83
2021/12/22 09:13:57;;;;;;;;;;;1.10;99.90;;;;;;4971342;28;20404;-83
2021/12/22 09:16:22;;;;;;;;;;;1.00;99.90;;;;;;4983502;28;19917;-84
2021/12/22 09:18:48;;;;;;;;;;;0.90;99.90;;;;;;4990696;28;19910;-83
2021/12/22 09:21:14;;;;;;;;;;;0.80;99.90;;;;;;4986468;28;19914;-83
2021/12/22 09:23:39;;;;;;;;;;;0.80;99.90;;;;;;4970482;28;19914;-83
2021/12/22 09:26:05;;;;;;;;;;;0.80;99.90;;;;;;4976318;28;19914;-83
2021/12/22 09:28:31;;;;;;;;;;;0.80;99.90;;;;;;4970497;28;19917;-83
2021/12/22 09:30:57;;;;;;;;;;;0.80;99.90;;;;;;4975731;28;19980;-83
2021/12/22 09:33:25;;;;;;;;;;;0.90;99.90;;;;;;4974861;28;19911;-82
2021/12/22 09:35:52;;;;;;;;;;;0.90;99.90;;;;;;4976549;28;19917;-83
2021/12/22 09:38:17;;;;;;;;;;;1.00;99.90;;;;;;4975390;28;20551;-83
2021/12/22 09:40:43;;;;;;;;;;;1.10;99.90;;;;;;4973828;28;19980;-83
2021/12/22 09:43:09;;;;;;;;;;;1.10;99.90;;;;;;5005493;28;19914;-82
2021/12/22 09:45:41;;;;;;;;;;;1.10;99.90;;;;;;4993062;28;19921;-82
2021/12/22 09:50:48;;;;;;;;;;;1.20;99.90;;;;;;4973180;28;19980;-82
2021/12/22 09:53:15;;;;;;;;;;;1.30;99.90;;;;;;4972493;28;19910;-82
2021/12/22 09:55:40;;;;;;;;;;;1.30;99.90;;;;;;4976874;28;19914;-83
2021/12/22 09:58:06;;;;;;;;;;;1.30;99.90;;;;;;4985932;28;20380;-82
2021/12/22 10:00:34;;;;;;;;;;;1.40;99.90;;;;;;4976032;28;19921;-81
2021/12/22 10:03:01;;;;;;;;;;;1.30;99.90;;;;;;4975591;28;19922;-82
2021/12/22 10:05:26;;;;;;;;;;;1.30;99.90;;;;;;4980103;28;20384;-82
2021/12/22 10:08:04;;;;;;;;;;;1.40;99.90;;;;;;4979586;28;19968;-82
2021/12/22 10:10:30;;;;;;;;;;;1.50;99.90;;;;;;4988183;28;19917;-82
2021/12/22 10:13:06;;;;;;;;;;;1.60;99.90;;;;;;4981740;28;20373;-82
2021/12/22 10:15:33;;;;;;;;;;;1.60;99.90;;;;;;4978154;28;19913;-82
2021/12/22 10:18:06;;;;;;;;;;;1.70;99.90;;;;;;4984154;28;19921;-82
2021/12/22 10:20:32;;;;;;;;;;;1.70;99.90;;;;;;4981148;28;19910;-82
2021/12/22 10:22:57;;;;;;;;;;;1.70;99.90;;;;;;4982689;28;19913;-82
2021/12/22 10:25:25;;;;;;;;;;;1.80;99.90;;;;;;4981184;28;19961;-82
2021/12/22 10:28:01;;;;;;;;;;;1.80;99.90;;;;;;4979073;28;19925;-82
2021/12/22 10:30:27;;;;;;;;;;;1.80;99.90;;;;;;4982068;28;19913;-82
2021/12/22 10:33:04;;;;;;;;;;;2.00;99.90;;;;;;4977974;28;19917;-82
2021/12/22 10:35:32;;;;;;;;;;;2.00;99.90;;;;;;4994188;28;19917;-82
2021/12/22 10:37:58;;;;;;;;;;;2.20;99.90;;;;;;4984324;28;19913;-82
2021/12/22 10:40:25;;;;;;;;;;;2.30;99.90;;;;;;4992556;28;20017;-82
2021/12/22 10:42:51;;;;;;;;;;;2.40;99.90;;;;;;4975747;28;20036;-82
2021/12/22 10:45:18;;;;;;;;;;;2.60;99.90;;;;;;4986243;28;20013;-82
2021/12/22 10:50:34;;;;;;;;;;;3.00;99.90;;;;;;4983151;28;19963;-82
2021/12/22 10:53:00;;;;;;;;;;;3.10;99.90;;;;;;4986300;28;19917;-83
2021/12/22 10:55:34;;;;;;;;;;;3.20;99.90;;;;;;4994569;28;19915;-83
2021/12/22 10:58:00;;;;;;;;;;;3.40;99.90;;;;;;4994789;28;19918;-83
2021/12/22 11:00:26;;;;;;;;;;;3.90;99.90;;;;;;4976776;28;19964;-82
2021/12/22 11:03:02;;;;;;;;;;;4.20;99.90;;;;;;4976616;28;20273;-82
2021/12/22 11:05:29;;;;;;;;;;;3.90;99.90;;;;;;4980242;28;19914;-83
2021/12/22 11:07:55;;;;;;;;;;;3.50;99.90;;;;;;4975738;28;20636;-82
2021/12/22 11:10:25;;;;;;;;;;;3.00;99.90;;;;;;4979171;28;19972;-82
2021/12/22 11:12:59;;;;;;;;;;;2.70;99.90;;;;;;5000614;28;19913;-83
2021/12/22 11:15:25;;;;;;;;;;;2.80;99.90;;;;;;4980619;28;20438;-82
2021/12/22 11:17:50;;;;;;;;;;;2.80;99.90;;;;;;4986056;28;20000;-82
2021/12/22 11:20:16;;;;;;;;;;;2.80;99.90;;;;;;4977821;28;19910;-82
2021/12/22 11:23:00;;;;;;;;;;;3.10;99.90;;;;;;4984580;28;19917;-82
2021/12/22 11:25:26;;;;;;;;;;;3.20;99.90;;;;;;4981036;28;19925;-82
2021/12/22 11:27:52;;;;;;;;;;;3.50;99.90;;;;;;4977188;28;19997;-82
2021/12/22 11:30:18;;;;;;;;;;;3.30;99.90;;;;;;4992371;28;19921;-82
2021/12/22 11:32:44;;;;;;;;;;;3.20;99.90;;;;;;4975045;28;19913;-82
2021/12/22 11:35:11;;;;;;;;;;;2.90;99.90;;;;;;4976782;28;19914;-82
2021/12/22 11:37:36;;;;;;;;;;;2.90;99.90;;;;;;4975387;28;20005;-82
2021/12/22 11:40:03;;;;;;;;;;;2.90;99.90;;;;;;4977794;28;19996;-82
2021/12/22 11:42:32;;;;;;;;;;;3.00;99.90;;;;;;4976256;28;19914;-82
2021/12/22 11:45:15;;;;;;;;;;;3.30;99.90;;;;;;4976867;28;20020;-81
2021/12/22 11:47:42;;;;;;;;;;;3.70;99.90;;;;;;5008123;28;19967;-82
2021/12/22 11:50:13;;;;;;;;;;;3.90;99.90;;;;;;4996473;28;19917;-82
2021/12/22 11:52:43;;;;;;;;;;;3.60;99.90;;;;;;4975916;28;20262;-82
2021/12/22 11:55:10;;;;;;;;;;;3.30;99.90;;;;;;4974107;28;20391;-82
2021/12/22 11:57:36;;;;;;;;;;;3.00;99.90;;;;;;4975818;28;19910;-82
2021/12/22 12:00:20;;;;;;;;;;;2.90;99.90;;;;;;4973940;28;19910;-82
2021/12/22 12:02:45;;;;;;;;;;;2.90;99.90;;;;;;4982487;28;20353;-82
2021/12/22 12:05:16;;;;;;;;;;;3.00;99.90;;;;;;4989910;28;19997;-83
2021/12/22 12:07:56;;;;;;;;;;;3.00;99.90;;;;;;4978200;28;19940;-82
2021/12/22 12:10:34;;;;;;;;;;;3.20;99.90;;;;;;4979164;28;19924;-82
2021/12/22 12:13:08;;;;;;;;;;;3.20;99.90;;;;;;4969833;28;19945;-82
2021/12/22 12:16:00;;;;;;;;;;;3.30;99.90;;;;;;4978487;28;20466;-82
2021/12/22 12:21:51;;;;;;;;;;;3.10;99.90;;;;;;5030570;28;19966;-83
2021/12/22 12:24:35;;;;;;;;;;;3.00;99.90;;;;;;5028939;28;19913;-83
2021/12/22 12:27:21;;;;;;;;;;;3.10;99.90;;;;;;4999717;28;20479;-83
2021/12/22 12:30:09;;;;;;;;;;;3.10;99.90;;;;;;4975736;28;20138;-82
2021/12/22 12:32:54;;;;;;;;;;;3.10;99.90;;;;;;4976953;28;19941;-82
2021/12/22 12:35:19;;;;;;;;;;;3.20;99.90;;;;;;4978510;28;19914;-83
2021/12/22 12:38:03;;;;;;;;;;;3.30;99.90;;;;;;4982532;28;19914;-83
2021/12/22 12:40:51;;;;;;;;;;;3.10;99.90;;;;;;4979042;28;20004;-82
2021/12/22 12:43:16;;;;;;;;;;;3.00;99.90;;;;;;4972293;28;19914;-83
2021/12/22 12:45:46;;;;;;;;;;;2.90;99.90;;;;;;4975227;28;19936;-83
2021/12/22 12:48:24;;;;;;;;;;;2.70;99.90;;;;;;4981042;28;20009;-83
2021/12/22 12:51:08;;;;;;;;;;;2.70;99.90;;;;;;4977113;28;19928;-84
2021/12/22 12:53:39;;;;;;;;;;;2.60;99.90;;;;;;4975645;28;19996;-83
2021/12/22 12:56:07;;;;;;;;;;;2.40;99.90;;;;;;4979958;28;19914;-84
2021/12/22 12:58:32;;;;;;;;;;;2.40;99.90;;;;;;4981826;28;19917;-84
2021/12/22 13:00:58;;;;;;;;;;;2.50;99.90;;;;;;4979056;28;19914;-84
2021/12/22 13:03:24;;;;;;;;;;;2.40;99.90;;;;;;4973884;28;20381;-83
2021/12/22 13:05:49;;;;;;;;;;;2.40;99.90;;;;;;4980316;28;19921;-84
2021/12/22 13:08:14;;;;;;;;;;;2.40;99.90;;;;;;4991984;28;19998;-84
2021/12/22 13:10:44;;;;;;;;;;;2.50;99.90;;;;;;4979990;28;19914;-83
2021/12/22 13:13:15;;;;;;;;;;;2.50;99.90;;;;;;4990555;28;19910;-84
2021/12/22 13:15:49;;;;;;;;;;;2.90;99.90;;;;;;4979780;28;19909;-84
2021/12/22 13:18:16;;;;;;;;;;;3.20;99.90;;;;;;4984183;28;19910;-83
2021/12/22 13:20:42;;;;;;;;;;;2.70;99.90;;;;;;4982341;28;20370;-84
2021/12/22 13:23:18;;;;;;;;;;;2.50;99.90;;;;;;4977651;28;19917;-83
2021/12/22 13:25:45;;;;;;;;;;;2.40;99.90;;;;;;4985517;28;20295;-84
2021/12/22 13:28:12;;;;;;;;;;;2.40;99.90;;;;;;4986565;28;19925;-83
2021/12/22 13:30:43;;;;;;;;;;;2.40;99.90;;;;;;4979211;28;19913;-85
2021/12/22 13:33:23;;;;;;;;;;;2.30;99.90;;;;;;4983790;28;19961;-85
2021/12/22 13:35:54;;;;;;;;;;;2.30;99.90;;;;;;4997384;28;20131;-85
2021/12/22 13:38:35;;;;;;;;;;;2.30;99.90;;;;;;4982270;28;19914;-85
2021/12/22 13:41:33;;;;;;;;;;;2.20;99.90;;;;;;4998339;28;19988;-84
2021/12/22 13:44:05;;;;;;;;;;;2.20;99.90;;;;;;5006255;28;19973;-85
2021/12/22 13:46:33;;;;;;;;;;;2.10;99.90;;;;;;4984535;28;19914;-85
2021/12/22 13:49:03;;;;;;;;;;;2.20;99.90;;;;;;4984860;28;19914;-84
2021/12/22 13:51:37;;;;;;;;;;;2.20;99.90;;;;;;4995490;28;19914;-85
2021/12/22 13:54:23;;;;;;;;;;;2.20;99.90;;;;;;4980461;28;20369;-85
2021/12/22 13:56:49;;;;;;;;;;;2.10;99.90;;;;;;4984509;28;20230;-84
2021/12/22 13:59:25;;;;;;;;;;;2.10;99.90;;;;;;4978798;28;19909;-84
2021/12/22 14:01:51;;;;;;;;;;;2.00;99.90;;;;;;4998421;28;19993;-83
2021/12/22 14:04:16;;;;;;;;;;;2.10;99.90;;;;;;4981907;28;19910;-84
2021/12/22 14:06:45;;;;;;;;;;;2.00;99.90;;;;;;4988923;28;19920;-83
2021/12/22 14:09:10;;;;;;;;;;;2.00;99.90;;;;;;4982909;28;19913;-85
2021/12/22 14:11:38;;;;;;;;;;;2.00;99.90;;;;;;4997969;28;19932;-83
2021/12/22 14:14:23;;;;;;;;;;;2.00;99.90;;;;;;5007049;28;20372;-83
2021/12/22 14:16:50;;;;;;;;;;;1.90;99.90;;;;;;4991916;28;19914;-84
2021/12/22 14:19:16;;;;;;;;;;;1.90;99.90;;;;;;4983521;28;19910;-83
2021/12/22 14:21:42;;;;;;;;;;;1.90;99.90;;;;;;4986948;28;19914;-84
2021/12/22 14:24:08;;;;;;;;;;;1.80;99.90;;;;;;4980641;28;19967;-84
2021/12/22 14:26:33;;;;;;;;;;;1.70;99.90;;;;;;4982905;28;20399;-84
2021/12/22 14:29:06;;;;;;;;;;;1.70;99.90;;;;;;4997304;28;19918;-84
2021/12/22 14:31:37;;;;;;;;;;;1.60;99.90;;;;;;4984063;28;20317;-84
2021/12/22 14:34:03;;;;;;;;;;;1.60;99.90;;;;;;4988852;28;19913;-84
2021/12/22 14:36:40;;;;;;;;;;;1.50;99.90;;;;;;4986613;28;20374;-84
2021/12/22 14:39:05;;;;;;;;;;;1.40;99.90;;;;;;4986577;28;19910;-84
2021/12/22 14:41:31;;;;;;;;;;;1.50;99.90;;;;;;4985883;28;19917;-83
2021/12/22 14:43:56;;;;;;;;;;;1.40;99.90;;;;;;4979304;28;20021;-84
2021/12/22 14:46:32;;;;;;;;;;;1.40;99.90;;;;;;4976360;28;19997;-83
2021/12/22 14:48:59;;;;;;;;;;;1.40;99.90;;;;;;4986268;28;19920;-84
2021/12/22 14:51:25;;;;;;;;;;;1.30;99.90;;;;;;4981202;28;19989;-83
2021/12/22 14:54:03;;;;;;;;;;;1.20;99.90;;;;;;4982326;28;20073;-85
2021/12/22 14:56:37;;;;;;;;;;;1.20;99.90;;;;;;4984273;28;19917;-84